SKW7821 KSLC-KLAS
Flight info
| Callsign | SKW7821 |
|---|---|
| Flight time | 0h 46m |
| Altitude | 38000 |
| Route | ARCHZ1 MLF STEWW CHOWW4 |
| Aircraft | B789/H-SDE1E2E3FGHIJ2J3J4J5M1RWXY/LB1D1 |
Departure
| Time | 2026-05-07 02:14 |
|---|---|
| Airport | Salt Lake City International Airport (KSLC) |
Arrival
| Time | 2026-05-07 03:00 |
|---|---|
| Airport | Harry Reid International Airport (KLAS) |
| Time | Latitude | Longitude | Altitude | Speed | Heading |
|---|---|---|---|---|---|
| 2026-05-07 01:46 | 40.78809 | -111.99161 | 4237 ft | 0 kts | 18° |
| 2026-05-07 02:00 | 40.78795 | -111.99167 | 4241 ft | 4 kts | 18° |
| 2026-05-07 02:00 | 40.78770 | -111.99178 | 4236 ft | 4 kts | 18° |
| 2026-05-07 02:01 | 40.78744 | -111.99189 | 4234 ft | 4 kts | 18° |
| 2026-05-07 02:01 | 40.78724 | -111.99199 | 4235 ft | 2 kts | 18° |
| 2026-05-07 02:01 | 40.78727 | -111.99179 | 4234 ft | 4 kts | 88° |
| 2026-05-07 02:01 | 40.78730 | -111.99138 | 4234 ft | 4 kts | 264° |
| 2026-05-07 02:02 | 40.78732 | -111.99102 | 4234 ft | 4 kts | 264° |
| 2026-05-07 02:02 | 40.78733 | -111.99094 | 4234 ft | 0 kts | 264° |
| 2026-05-07 02:07 | 40.78731 | -111.99126 | 4234 ft | 5 kts | 264° |
| 2026-05-07 02:07 | 40.78727 | -111.99192 | 4235 ft | 9 kts | 266° |
| 2026-05-07 02:08 | 40.78723 | -111.99296 | 4237 ft | 13 kts | 270° |
| 2026-05-07 02:08 | 40.78781 | -111.99380 | 4237 ft | 14 kts | 347° |
| 2026-05-07 02:08 | 40.78889 | -111.99393 | 4237 ft | 17 kts | 354° |
| 2026-05-07 02:08 | 40.79020 | -111.99410 | 4237 ft | 21 kts | 355° |
| 2026-05-07 02:09 | 40.79177 | -111.99428 | 4237 ft | 24 kts | 355° |
| 2026-05-07 02:09 | 40.79356 | -111.99450 | 4236 ft | 28 kts | 354° |
| 2026-05-07 02:09 | 40.79488 | -111.99466 | 4237 ft | 29 kts | 354° |
| 2026-05-07 02:09 | 40.79701 | -111.99492 | 4236 ft | 32 kts | 355° |
| 2026-05-07 02:10 | 40.79933 | -111.99516 | 4237 ft | 35 kts | 354° |
| 2026-05-07 02:10 | 40.80265 | -111.99556 | 4237 ft | 38 kts | 354° |
| 2026-05-07 02:10 | 40.80445 | -111.99577 | 4237 ft | 39 kts | 355° |
| 2026-05-07 02:10 | 40.80697 | -111.99605 | 4237 ft | 30 kts | 355° |
| 2026-05-07 02:11 | 40.80822 | -111.99705 | 4236 ft | 14 kts | 274° |
| 2026-05-07 02:11 | 40.80786 | -111.99786 | 4236 ft | 10 kts | 239° |
| 2026-05-07 02:11 | 40.80759 | -111.99866 | 4236 ft | 9 kts | 246° |
| 2026-05-07 02:11 | 40.80724 | -111.99908 | 4237 ft | 5 kts | 203° |
| 2026-05-07 02:12 | 40.80696 | -111.99917 | 4237 ft | 3 kts | 190° |
| 2026-05-07 02:12 | 40.80672 | -111.99919 | 4236 ft | 7 kts | 182° |
| 2026-05-07 02:12 | 40.80647 | -111.99917 | 4237 ft | 0 kts | 176° |
| 2026-05-07 02:13 | 40.80643 | -111.99917 | 4237 ft | 7 kts | 176° |
| 2026-05-07 02:13 | 40.80405 | -111.99889 | 4238 ft | 61 kts | 175° |
| 2026-05-07 02:13 | 40.79752 | -111.99811 | 4236 ft | 132 kts | 175° |
| 2026-05-07 02:13 | 40.78605 | -111.99674 | 4325 ft | 189 kts | 169° |
| 2026-05-07 02:14 | 40.77269 | -111.99383 | 5167 ft | 204 kts | 169° |
| 2026-05-07 02:14 | 40.75734 | -111.99167 | 5798 ft | 237 kts | 175° |
| 2026-05-07 02:14 | 40.73997 | -111.98940 | 6600 ft | 264 kts | 175° |
| 2026-05-07 02:14 | 40.72101 | -111.98796 | 7470 ft | 285 kts | 188° |
| 2026-05-07 02:15 | 40.70288 | -111.99872 | 8533 ft | 293 kts | 225° |
| 2026-05-07 02:15 | 40.69196 | -112.02101 | 9796 ft | 292 kts | 254° |
| 2026-05-07 02:15 | 40.68982 | -112.04705 | 10919 ft | 289 kts | 282° |
| 2026-05-07 02:15 | 40.69571 | -112.07223 | 12130 ft | 288 kts | 296° |
| 2026-05-07 02:16 | 40.70367 | -112.09655 | 13387 ft | 290 kts | 296° |
| 2026-05-07 02:16 | 40.71106 | -112.12102 | 14313 ft | 282 kts | 294° |
| 2026-05-07 02:16 | 40.71773 | -112.14545 | 15015 ft | 286 kts | 294° |
| 2026-05-07 02:16 | 40.72469 | -112.17053 | 15777 ft | 295 kts | 294° |
| 2026-05-07 02:17 | 40.73105 | -112.19644 | 16572 ft | 306 kts | 282° |
| 2026-05-07 02:17 | 40.73052 | -112.22520 | 17394 ft | 321 kts | 262° |
| 2026-05-07 02:17 | 40.72191 | -112.25287 | 18238 ft | 336 kts | 240° |
| 2026-05-07 02:17 | 40.70554 | -112.27502 | 19008 ft | 350 kts | 217° |
| 2026-05-07 02:18 | 40.68296 | -112.28761 | 19760 ft | 359 kts | 193° |
| 2026-05-07 02:18 | 40.65821 | -112.29322 | 20571 ft | 360 kts | 191° |
| 2026-05-07 02:18 | 40.63328 | -112.29794 | 21368 ft | 362 kts | 190° |
| 2026-05-07 02:18 | 40.60856 | -112.30263 | 22136 ft | 363 kts | 191° |
| 2026-05-07 02:19 | 40.58356 | -112.30780 | 22894 ft | 364 kts | 191° |
| 2026-05-07 02:19 | 40.55865 | -112.31408 | 23617 ft | 363 kts | 201° |
| 2026-05-07 02:19 | 40.53459 | -112.32442 | 24220 ft | 364 kts | 200° |
| 2026-05-07 02:19 | 40.51014 | -112.33412 | 24825 ft | 366 kts | 200° |
| 2026-05-07 02:20 | 40.48574 | -112.34386 | 25416 ft | 366 kts | 201° |
| 2026-05-07 02:20 | 40.46137 | -112.35391 | 26005 ft | 367 kts | 201° |
| 2026-05-07 02:20 | 40.43727 | -112.36389 | 26569 ft | 368 kts | 201° |
| 2026-05-07 02:20 | 40.41276 | -112.37388 | 27131 ft | 369 kts | 201° |
| 2026-05-07 02:21 | 40.38816 | -112.38386 | 27678 ft | 370 kts | 201° |
| 2026-05-07 02:21 | 40.36340 | -112.39351 | 28211 ft | 372 kts | 198° |
| 2026-05-07 02:21 | 40.33808 | -112.40137 | 28743 ft | 374 kts | 195° |
| 2026-05-07 02:21 | 40.31278 | -112.40862 | 29140 ft | 379 kts | 196° |
| 2026-05-07 02:22 | 40.28655 | -112.41696 | 29134 ft | 396 kts | 197° |
| 2026-05-07 02:22 | 40.25926 | -112.42606 | 29139 ft | 413 kts | 197° |
| 2026-05-07 02:22 | 40.23066 | -112.43523 | 29145 ft | 430 kts | 196° |
| 2026-05-07 02:22 | 40.20112 | -112.44441 | 29151 ft | 447 kts | 196° |
| 2026-05-07 02:23 | 40.17020 | -112.45414 | 29154 ft | 462 kts | 196° |
| 2026-05-07 02:23 | 40.13835 | -112.46434 | 29142 ft | 476 kts | 196° |
| 2026-05-07 02:23 | 40.07332 | -112.48491 | 29133 ft | 486 kts | 195° |
| 2026-05-07 02:24 | 40.00607 | -112.50618 | 29132 ft | 510 kts | 195° |
| 2026-05-07 02:24 | 39.97108 | -112.51725 | 29139 ft | 522 kts | 195° |
| 2026-05-07 02:24 | 39.93525 | -112.52851 | 29121 ft | 533 kts | 195° |
| 2026-05-07 02:25 | 39.86160 | -112.55166 | 29130 ft | 552 kts | 195° |
| 2026-05-07 02:25 | 39.78690 | -112.57512 | 29111 ft | 556 kts | 195° |
| 2026-05-07 02:26 | 39.71167 | -112.59868 | 29117 ft | 556 kts | 195° |
| 2026-05-07 02:26 | 39.63665 | -112.62213 | 29134 ft | 557 kts | 195° |
| 2026-05-07 02:27 | 39.56110 | -112.64568 | 29157 ft | 556 kts | 195° |
| 2026-05-07 02:27 | 39.48620 | -112.66900 | 29163 ft | 555 kts | 195° |
| 2026-05-07 02:28 | 39.41111 | -112.69230 | 29166 ft | 554 kts | 195° |
| 2026-05-07 02:28 | 39.33585 | -112.71562 | 29092 ft | 555 kts | 195° |
| 2026-05-07 02:29 | 39.26103 | -112.73875 | 29089 ft | 556 kts | 194° |
| 2026-05-07 02:29 | 39.18576 | -112.76196 | 29081 ft | 554 kts | 194° |
| 2026-05-07 02:30 | 39.11101 | -112.78497 | 29077 ft | 554 kts | 194° |
| 2026-05-07 02:30 | 39.03589 | -112.80803 | 29088 ft | 553 kts | 194° |
| 2026-05-07 02:31 | 38.96153 | -112.83082 | 29096 ft | 551 kts | 194° |
| 2026-05-07 02:31 | 38.88672 | -112.85369 | 29093 ft | 552 kts | 194° |
| 2026-05-07 02:32 | 38.81218 | -112.87643 | 29093 ft | 552 kts | 194° |
| 2026-05-07 02:32 | 38.73758 | -112.89914 | 29099 ft | 552 kts | 194° |
| 2026-05-07 02:33 | 38.66265 | -112.92190 | 29135 ft | 553 kts | 194° |
| 2026-05-07 02:33 | 38.58814 | -112.94449 | 29163 ft | 553 kts | 194° |
| 2026-05-07 02:34 | 38.51322 | -112.96714 | 29184 ft | 551 kts | 194° |
| 2026-05-07 02:34 | 38.43895 | -112.98956 | 29186 ft | 551 kts | 194° |
| 2026-05-07 02:35 | 38.36434 | -113.01227 | 29184 ft | 550 kts | 196° |
| 2026-05-07 02:35 | 38.29224 | -113.04555 | 29182 ft | 551 kts | 201° |
| 2026-05-07 02:36 | 38.22082 | -113.07963 | 29161 ft | 550 kts | 201° |
| 2026-05-07 02:36 | 38.14889 | -113.11356 | 29114 ft | 550 kts | 201° |
| 2026-05-07 02:37 | 38.07732 | -113.14750 | 29086 ft | 551 kts | 201° |
| 2026-05-07 02:37 | 38.00523 | -113.18143 | 29088 ft | 551 kts | 201° |
| 2026-05-07 02:38 | 37.93340 | -113.21530 | 29133 ft | 551 kts | 201° |
| 2026-05-07 02:38 | 37.86181 | -113.24891 | 29146 ft | 550 kts | 201° |
| 2026-05-07 02:39 | 37.78988 | -113.28264 | 29163 ft | 550 kts | 201° |
| 2026-05-07 02:39 | 37.71832 | -113.31611 | 29158 ft | 550 kts | 201° |
| 2026-05-07 02:40 | 37.64640 | -113.34969 | 29140 ft | 551 kts | 201° |
| 2026-05-07 02:40 | 37.57457 | -113.38316 | 29104 ft | 551 kts | 200° |
| 2026-05-07 02:41 | 37.50291 | -113.41648 | 29069 ft | 551 kts | 200° |
| 2026-05-07 02:41 | 37.43073 | -113.44997 | 29030 ft | 551 kts | 200° |
| 2026-05-07 02:42 | 37.35888 | -113.48324 | 29040 ft | 555 kts | 200° |
| 2026-05-07 02:42 | 37.28611 | -113.51687 | 29012 ft | 554 kts | 200° |
| 2026-05-07 02:43 | 37.21495 | -113.55329 | 29029 ft | 555 kts | 205° |
| 2026-05-07 02:43 | 37.18034 | -113.57371 | 29016 ft | 539 kts | 206° |
| 2026-05-07 02:43 | 37.14706 | -113.59340 | 28989 ft | 519 kts | 206° |
| 2026-05-07 02:44 | 37.11482 | -113.61220 | 28930 ft | 501 kts | 205° |
| 2026-05-07 02:44 | 37.08362 | -113.63031 | 28884 ft | 485 kts | 205° |
| 2026-05-07 02:44 | 37.05351 | -113.64789 | 28838 ft | 470 kts | 205° |
| 2026-05-07 02:44 | 37.02450 | -113.66488 | 28402 ft | 464 kts | 205° |
| 2026-05-07 02:45 | 36.99520 | -113.68197 | 27887 ft | 461 kts | 205° |
| 2026-05-07 02:45 | 36.96616 | -113.69884 | 27425 ft | 457 kts | 205° |
| 2026-05-07 02:45 | 36.93742 | -113.71555 | 26940 ft | 453 kts | 205° |
| 2026-05-07 02:45 | 36.90929 | -113.73200 | 26454 ft | 450 kts | 205° |
| 2026-05-07 02:46 | 36.88094 | -113.74861 | 26007 ft | 446 kts | 205° |
| 2026-05-07 02:46 | 36.85291 | -113.76495 | 25550 ft | 442 kts | 205° |
| 2026-05-07 02:46 | 36.82509 | -113.78113 | 25090 ft | 438 kts | 205° |
| 2026-05-07 02:46 | 36.79757 | -113.79714 | 24639 ft | 435 kts | 205° |
| 2026-05-07 02:47 | 36.77018 | -113.81310 | 24183 ft | 432 kts | 205° |
| 2026-05-07 02:47 | 36.74327 | -113.82875 | 23690 ft | 430 kts | 205° |
| 2026-05-07 02:47 | 36.71606 | -113.84455 | 23128 ft | 428 kts | 205° |
| 2026-05-07 02:47 | 36.68910 | -113.86018 | 22552 ft | 426 kts | 205° |
| 2026-05-07 02:48 | 36.66224 | -113.87577 | 21982 ft | 423 kts | 205° |
| 2026-05-07 02:48 | 36.63563 | -113.89120 | 21398 ft | 421 kts | 205° |
| 2026-05-07 02:48 | 36.60953 | -113.90645 | 20866 ft | 418 kts | 207° |
| 2026-05-07 02:48 | 36.58565 | -113.92693 | 20310 ft | 414 kts | 224° |
| 2026-05-07 02:49 | 36.56675 | -113.95371 | 19746 ft | 411 kts | 233° |
| 2026-05-07 02:49 | 36.54920 | -113.98176 | 19165 ft | 409 kts | 234° |
| 2026-05-07 02:49 | 36.53214 | -114.00967 | 18579 ft | 409 kts | 234° |
| 2026-05-07 02:49 | 36.51486 | -114.03773 | 17990 ft | 407 kts | 234° |
| 2026-05-07 02:50 | 36.49742 | -114.06565 | 17343 ft | 406 kts | 234° |
| 2026-05-07 02:50 | 36.48017 | -114.09328 | 16707 ft | 404 kts | 234° |
| 2026-05-07 02:50 | 36.46302 | -114.12090 | 16097 ft | 402 kts | 234° |
| 2026-05-07 02:50 | 36.44634 | -114.14776 | 15896 ft | 388 kts | 234° |
| 2026-05-07 02:51 | 36.43017 | -114.17366 | 15881 ft | 369 kts | 234° |
| 2026-05-07 02:51 | 36.41474 | -114.19836 | 15878 ft | 355 kts | 234° |
| 2026-05-07 02:51 | 36.39977 | -114.22240 | 15879 ft | 349 kts | 234° |
| 2026-05-07 02:51 | 36.38484 | -114.24627 | 15880 ft | 350 kts | 234° |
| 2026-05-07 02:52 | 36.36962 | -114.27006 | 15878 ft | 352 kts | 233° |
| 2026-05-07 02:52 | 36.35453 | -114.29355 | 15883 ft | 352 kts | 233° |
| 2026-05-07 02:52 | 36.33927 | -114.31748 | 15876 ft | 352 kts | 233° |
| 2026-05-07 02:52 | 36.32410 | -114.34135 | 15878 ft | 353 kts | 233° |
| 2026-05-07 02:53 | 36.30883 | -114.36529 | 15879 ft | 353 kts | 233° |
| 2026-05-07 02:53 | 36.29348 | -114.38926 | 15856 ft | 354 kts | 233° |
| 2026-05-07 02:53 | 36.27824 | -114.41310 | 15875 ft | 350 kts | 233° |
| 2026-05-07 02:53 | 36.26332 | -114.43644 | 15868 ft | 349 kts | 233° |
| 2026-05-07 02:54 | 36.24822 | -114.46000 | 15877 ft | 349 kts | 232° |
| 2026-05-07 02:54 | 36.23291 | -114.48349 | 15878 ft | 350 kts | 232° |
| 2026-05-07 02:54 | 36.21752 | -114.50692 | 15876 ft | 350 kts | 232° |
| 2026-05-07 02:54 | 36.20218 | -114.53041 | 15875 ft | 351 kts | 232° |
| 2026-05-07 02:55 | 36.18684 | -114.55398 | 15875 ft | 351 kts | 232° |
| 2026-05-07 02:55 | 36.17177 | -114.57708 | 15866 ft | 346 kts | 232° |
| 2026-05-07 02:55 | 36.16141 | -114.59291 | 15459 ft | 352 kts | 232° |
| 2026-05-07 02:55 | 36.14196 | -114.62511 | 14681 ft | 354 kts | 234° |
| 2026-05-07 02:56 | 36.12640 | -114.64912 | 14068 ft | 357 kts | 231° |
| 2026-05-07 02:56 | 36.11589 | -114.66496 | 13632 ft | 359 kts | 232° |
| 2026-05-07 02:56 | 36.09562 | -114.69766 | 12647 ft | 362 kts | 238° |
| 2026-05-07 02:56 | 36.08630 | -114.72628 | 11931 ft | 358 kts | 262° |
| 2026-05-07 02:57 | 36.08447 | -114.75690 | 11242 ft | 356 kts | 273° |
| 2026-05-07 02:57 | 36.08476 | -114.77725 | 10793 ft | 356 kts | 274° |
| 2026-05-07 02:57 | 36.08454 | -114.81818 | 9788 ft | 361 kts | 269° |
| 2026-05-07 02:57 | 36.08190 | -114.84916 | 8984 ft | 363 kts | 265° |
| 2026-05-07 02:58 | 36.07980 | -114.86974 | 8455 ft | 363 kts | 266° |
| 2026-05-07 02:58 | 36.07732 | -114.90079 | 7677 ft | 362 kts | 268° |
| 2026-05-07 02:58 | 36.07627 | -114.93185 | 6908 ft | 360 kts | 274° |
| 2026-05-07 02:58 | 36.07663 | -114.96275 | 6149 ft | 359 kts | 272° |
| 2026-05-07 02:59 | 36.07647 | -114.99356 | 5533 ft | 358 kts | 271° |
| 2026-05-07 02:59 | 36.07640 | -115.02451 | 4902 ft | 360 kts | 270° |
| 2026-05-07 02:59 | 36.07647 | -115.05501 | 3885 ft | 360 kts | 269° |
| 2026-05-07 02:59 | 36.07644 | -115.08657 | 2829 ft | 366 kts | 270° |
| 2026-05-07 03:00 | 36.07656 | -115.11766 | 2343 ft | 353 kts | 270° |
| 2026-05-07 03:00 | 36.07628 | -115.14705 | 2120 ft | 314 kts | 270° |
| 2026-05-07 03:00 | 36.07631 | -115.16897 | 2160 ft | 199 kts | 268° |
| 2026-05-07 03:00 | 36.07546 | -115.17616 | 2206 ft | 2 kts | 115° |
| 2026-05-07 03:01 | 36.07551 | -115.17613 | 2204 ft | 2 kts | 121° |
| 2026-05-07 03:01 | 36.07550 | -115.17613 | 2204 ft | 1 kts | 121° |
| 2026-05-07 03:02 | 36.07551 | -115.17612 | 2204 ft | 1 kts | 120° |
| 2026-05-07 03:02 | 36.07550 | -115.17613 | 2204 ft | 0 kts | 120° |
| 2026-05-07 03:03 | 36.07551 | -115.17612 | 2204 ft | 0 kts | 119° |
| 2026-05-07 03:03 | 36.07550 | -115.17612 | 2204 ft | 0 kts | 118° |